M I D A S
Marine Information and Data Acquisition System
Tripno 2026 of the Zeeleeuw from 2010-11-25 07:16:49 to 2010-11-25 15:35:39
Back to CruiseResearch ActivitiesStationsMapUnderway DataData graphs

EquipmentUnitsComments
TimeDGPSUTC
LatitudeDGPSDM.mWGS84
LongitudeDGPSDM.mWGS84
SpeedMeteo Stationm/sRelative wind speed
DirectionMeteo StationdegRelative wind direction
TemperatureMeteo Stationdeg CelciusAir temperature
PressureMeteo StationPaAtmospheric pressure
HumidityMeteo Station%Relative humidity
Missing or incorrect values are displayed as -999
Metereological data collected by the RV Zeeleeuw from 2010-11-25 07:11:19 to 2010-11-25 15:47:48
Time Latitude Longitude Speed Direction Temperature Pressure Humidity
2010-11-25 07:12 51°13.662 2°55.959 0.1 15 2 100380 42
2010-11-25 07:13 51°13.662 2°55.959 -999 17 2 100370 42
2010-11-25 07:14 51°13.662 2°55.958 0.9 8 2 100370 43
2010-11-25 07:15 51°13.662 2°55.959 0.1 20 2 100370 42
2010-11-25 07:16 51°13.663 2°55.959 -999 9 2 100370 42
2010-11-25 07:17 51°13.663 2°55.96 -999 15 2 100380 41
2010-11-25 07:18 51°13.663 2°55.96 -999 355 1.9 100380 42
2010-11-25 07:19 51°13.663 2°55.96 1.1 11 1.9 100370 42
2010-11-25 07:20 51°13.664 2°55.961 0.7 6 1.9 100380 47
2010-11-25 07:21 51°13.66 2°55.962 0.6 12 1.9 100370 46
2010-11-25 07:22 51°13.66 2°55.96 -999 10 1.9 100370 45
2010-11-25 07:23 51°13.665 2°55.944 0.9 33 1.9 100370 45
2010-11-25 07:24 51°13.689 2°55.842 1.3 33 1.9 100370 47
2010-11-25 07:25 51°13.704 2°55.753 1.2 34 1.9 100370 44
2010-11-25 07:26 51°13.707 2°55.722 0.2 39 1.9 100370 40
2010-11-25 07:27 51°13.737 2°55.704 -999 22 1.9 100360 43
2010-11-25 07:28 51°13.843 2°55.626 -999 317 2 100360 43
2010-11-25 07:29 51°13.965 2°55.544 -999 317 2 100370 43
2010-11-25 07:30 51°14.081 2°55.465 -999 327 2.1 100360 43
2010-11-25 07:31 51°14.197 2°55.38 -999 325 2.1 100360 43
2010-11-25 07:32 51°14.336 2°55.257 -999 322 2.2 100360 43
2010-11-25 07:33 51°14.494 2°55.064 1.1 322 2.1 100360 44
2010-11-25 07:34 51°14.661 2°54.866 0.2 329 2.2 100350 45
2010-11-25 07:35 51°14.84 2°54.675 1.2 335 2.2 100360 45
2010-11-25 07:36 51°15.027 2°54.514 2.7 326 2.3 100360 41
2010-11-25 07:37 51°15.207 2°54.359 2 339 2.5 100370 46
2010-11-25 07:38 51°15.394 2°54.209 1.8 341 2.6 100350 41
2010-11-25 07:39 51°15.581 2°54.053 0.1 323 2.5 100350 42
2010-11-25 07:40 51°15.735 2°53.812 0.1 345 2.4 100330 43
2010-11-25 07:41 51°15.893 2°53.562 1.3 333 2.5 100360 41
2010-11-25 07:42 51°16.036 2°53.301 0.2 353 2.5 100350 39
2010-11-25 07:43 51°16.214 2°53.114 2.7 325 2.6 100340 42
2010-11-25 07:44 51°16.397 2°52.947 -999 333 2.7 100350 43
2010-11-25 07:45 51°16.581 2°52.78 -999 1 2.7 100340 42
2010-11-25 07:46 51°16.777 2°52.661 0.3 1 2.8 100350 43
2010-11-25 07:47 51°16.976 2°52.56 1.3 338 2.8 100350 45
2010-11-25 07:48 51°17.173 2°52.456 0.4 339 2.8 100360 42
2010-11-25 07:49 51°17.37 2°52.352 0.9 333 2.8 100350 41
2010-11-25 07:50 51°17.568 2°52.319 4.4 320 2.9 100360 44
2010-11-25 07:51 51°17.76 2°52.304 6.4 323 3 100340 41
2010-11-25 07:52 51°17.874 2°52.29 6.7 24 3.1 100340 43
2010-11-25 07:53 51°17.969 2°52.268 4.7 21 3.1 100340 41
2010-11-25 07:54 51°18.09 2°52.25 10.6 319 3.2 100350 43
2010-11-25 07:55 51°18.209 2°52.229 9.6 324 3.8 100330 43
2010-11-25 07:56 51°18.318 2°52.214 10.5 327 4.2 100320 42
2010-11-25 07:57 51°18.414 2°52.212 8.8 320 4.4 100290 42
2010-11-25 07:58 51°18.517 2°52.209 12.6 325 4.8 100300 40
2010-11-25 07:59 51°18.631 2°52.208 10 326 5.1 100320 39
2010-11-25 08:00 51°18.741 2°52.203 9.1 323 5.4 100320 38
2010-11-25 08:01 51°18.847 2°52.198 12 323 5.6 100310 39
2010-11-25 08:02 51°18.948 2°52.192 10.3 23 5.8 100320 40
2010-11-25 08:03 51°19.041 2°52.187 13.9 316 5.9 100290 39
2010-11-25 08:04 51°19.148 2°52.182 13.1 316 5.9 100300 39
2010-11-25 08:05 51°19.257 2°52.171 13 23 6 100290 38
2010-11-25 08:06 51°19.364 2°52.158 12.5 23 6 100280 38
2010-11-25 08:07 51°19.472 2°52.143 12.1 22 6.1 100280 38
2010-11-25 08:08 51°19.572 2°52.129 13.7 316 6 100280 37
2010-11-25 08:09 51°19.659 2°52.113 14.2 19 6.2 100290 38
2010-11-25 08:10 51°19.758 2°52.097 13.2 315 6.1 100270 37
2010-11-25 08:11 51°19.852 2°52.089 14.7 27 6.1 100270 36
2010-11-25 08:12 51°19.934 2°52.075 12.3 316 6.1 100270 37
2010-11-25 08:13 51°20.031 2°52.06 10.8 319 6.2 100300 37
2010-11-25 08:14 51°20.132 2°52.046 12.9 317 6.2 100280 38
2010-11-25 08:15 51°20.223 2°52.033 10.7 318 6.2 100290 35
2010-11-25 08:16 51°20.309 2°52.02 13.1 319 6.2 100260 38
2010-11-25 08:17 51°20.4 2°52.004 12.5 316 6.2 100300 36
2010-11-25 08:18 51°20.502 2°51.987 13.1 316 6.2 100290 35
2010-11-25 08:19 51°20.61 2°52.002 13.2 20 6.2 100280 35
2010-11-25 08:20 51°20.714 2°52.033 12.2 24 6.2 100280 34
2010-11-25 08:21 51°20.817 2°52.059 12.1 19 6.2 100280 34
2010-11-25 08:22 51°20.905 2°52.08 11.5 25 6.3 100270 35
2010-11-25 08:23 51°20.999 2°52.101 12.3 24 6.3 100260 35
2010-11-25 08:24 51°21.089 2°52.129 9.3 19 6.3 100280 34
2010-11-25 08:25 51°21.189 2°52.152 10 23 6.3 100280 35
2010-11-25 08:26 51°21.291 2°52.182 11.2 22 6.3 100270 35
2010-11-25 08:27 51°21.392 2°52.205 13.7 316 6.3 100300 35
2010-11-25 08:28 51°21.492 2°52.231 11.2 25 6.3 100270 35
2010-11-25 08:29 51°21.595 2°52.26 10.2 26 6.3 100280 34
2010-11-25 08:30 51°21.701 2°52.288 9.6 26 6.3 100280 34
2010-11-25 08:31 51°21.804 2°52.323 9.4 25 6.3 100270 34
2010-11-25 08:32 51°21.905 2°52.355 12.8 19 6.3 100290 37
2010-11-25 08:33 51°22.004 2°52.389 13.4 22 6.3 100300 37
2010-11-25 08:34 51°22.115 2°52.429 12.3 26 6.3 100270 37
2010-11-25 08:35 51°22.22 2°52.469 11 319 6.3 100270 36
2010-11-25 08:36 51°22.322 2°52.505 11.6 317 6.2 100290 36
2010-11-25 08:37 51°22.421 2°52.537 13.1 317 6.1 100280 36
2010-11-25 08:38 51°22.522 2°52.572 10.6 316 6.1 100280 37
2010-11-25 08:39 51°22.61 2°52.603 17.2 22 6 100270 37
2010-11-25 08:40 51°22.693 2°52.63 11 20 6 100280 36
2010-11-25 08:41 51°22.773 2°52.656 13 315 5.9 100280 37
2010-11-25 08:42 51°22.869 2°52.688 14.5 23 5.8 100280 37
2010-11-25 08:43 51°22.969 2°52.72 12.7 315 5.5 100270 37
2010-11-25 08:44 51°23.082 2°52.76 16.7 23 5.5 100280 37
2010-11-25 08:45 51°23.192 2°52.796 12.8 315 5.3 100270 35
2010-11-25 08:46 51°23.294 2°52.832 11.4 22 5.1 100280 36
2010-11-25 08:47 51°23.398 2°52.866 12.3 20 5 100290 37
2010-11-25 08:48 51°23.492 2°52.902 13.7 21 5 100290 36
2010-11-25 08:49 51°23.581 2°52.937 13.2 26 4.8 100280 37
2010-11-25 08:50 51°23.671 2°52.967 9.9 19 4.8 100310 37
2010-11-25 08:51 51°23.768 2°53 12.5 24 4.8 100310 37
2010-11-25 08:52 51°23.854 2°53.029 9.6 24 4.9 100310 36
2010-11-25 08:53 51°23.955 2°53.062 11.8 24 5 100310 34
2010-11-25 08:54 51°24.053 2°53.093 12.6 319 5.1 100320 35
2010-11-25 08:55 51°24.147 2°53.111 10.2 316 5.1 100300 33
2010-11-25 08:56 51°24.24 2°53.127 5.3 322 5.1 100330 35
2010-11-25 08:57 51°24.331 2°53.14 7.5 327 5.2 100300 32
2010-11-25 08:58 51°24.408 2°53.137 6.5 322 5.2 100310 32
2010-11-25 08:59 51°24.502 2°53.133 5.4 319 5.3 100310 34
2010-11-25 09:00 51°24.607 2°53.129 7.9 318 5.4 100320 33
2010-11-25 09:01 51°24.705 2°53.133 5.9 28 5.3 100300 32
2010-11-25 09:02 51°24.8 2°53.149 6.1 18 5.3 100330 35
2010-11-25 09:03 51°24.891 2°53.165 7 27 5.3 100320 34
2010-11-25 09:04 51°24.985 2°53.18 10.3 25 5.4 100290 36
2010-11-25 09:05 51°25.086 2°53.202 14 22 5.5 100290 39
2010-11-25 09:06 51°25.187 2°53.224 13.3 22 5.3 100290 39
2010-11-25 09:07 51°25.292 2°53.244 13.4 22 5.2 100290 43
2010-11-25 09:08 51°25.399 2°53.265 12.6 25 5.3 100260 43
2010-11-25 09:09 51°25.501 2°53.286 16.4 22 5.3 100270 40
2010-11-25 09:10 51°25.576 2°53.303 10.5 23 5.1 100240 42
2010-11-25 09:11 51°25.658 2°53.319 10.7 19 5 100290 42
2010-11-25 09:12 51°25.751 2°53.334 13.3 22 5 100280 41
2010-11-25 09:13 51°25.843 2°53.339 11.8 318 5 100290 40
2010-11-25 09:14 51°25.935 2°53.317 15.4 316 5.1 100290 40
2010-11-25 09:15 51°26.025 2°53.295 11.5 322 5 100300 41
2010-11-25 09:16 51°26.114 2°53.273 11.3 320 5 100290 38
2010-11-25 09:17 51°26.213 2°53.251 11.2 21 4.9 100280 37
2010-11-25 09:18 51°26.315 2°53.228 11.7 27 4.9 100280 38
2010-11-25 09:19 51°26.417 2°53.208 10.9 22 4.9 100270 37
2010-11-25 09:20 51°26.519 2°53.185 14.5 316 5.1 100280 39
2010-11-25 09:21 51°26.607 2°53.163 12.1 316 5.3 100270 38
2010-11-25 09:22 51°26.701 2°53.14 15.8 23 5.5 100290 37
2010-11-25 09:23 51°26.784 2°53.122 11 26 5.7 100290 37
2010-11-25 09:24 51°26.88 2°53.101 15 26 5.9 100280 35
2010-11-25 09:25 51°26.972 2°53.084 12.2 19 5.9 100270 34
2010-11-25 09:26 51°27.06 2°53.07 11.8 317 6 100270 34
2010-11-25 09:27 51°27.156 2°53.053 13.4 316 6 100260 34
2010-11-25 09:28 51°27.246 2°53.034 14.7 22 6.1 100280 36
2010-11-25 09:29 51°27.346 2°53.016 13.6 315 6.1 100250 35
2010-11-25 09:30 51°27.438 2°53.001 13.2 24 6.1 100250 34
2010-11-25 09:31 51°27.531 2°52.983 12.7 24 6.1 100260 36
2010-11-25 09:32 51°27.63 2°52.962 15.1 25 6.3 100240 37
2010-11-25 09:33 51°27.704 2°52.947 16.7 316 6.3 100240 37
2010-11-25 09:34 51°27.758 2°52.932 14.5 317 6.1 100270 39
2010-11-25 09:35 51°27.834 2°52.91 18.9 316 5.9 100270 39
2010-11-25 09:36 51°27.926 2°52.889 12.4 318 5.7 100250 39
2010-11-25 09:37 51°28.01 2°52.864 14.4 319 5.6 100230 40
2010-11-25 09:38 51°28.119 2°52.842 17 316 5.6 100290 40
2010-11-25 09:39 51°28.249 2°52.814 15.6 24 5.5 100260 39
2010-11-25 09:40 51°28.366 2°52.792 14 317 5.5 100230 39
2010-11-25 09:41 51°28.487 2°52.763 10.8 316 5.5 100280 39
2010-11-25 09:42 51°28.594 2°52.706 13.1 328 5.4 100280 38
2010-11-25 09:43 51°28.648 2°52.511 14.1 347 5.4 100280 38
2010-11-25 09:44 51°28.6 2°52.289 6.7 8 5.4 100240 38
2010-11-25 09:45 51°28.479 2°52.152 10 27 5.5 100280 39
2010-11-25 09:46 51°28.354 2°52.069 11.5 23 5.4 100300 37
2010-11-25 09:47 51°28.237 2°52.003 11.8 28 5.3 100310 39
2010-11-25 09:48 51°28.125 2°51.935 11.9 22 5.2 100320 39
2010-11-25 09:49 51°28.016 2°51.867 9.2 33 5.2 100310 36
2010-11-25 09:50 51°27.903 2°51.8 9.7 25 5.2 100310 39
2010-11-25 09:51 51°27.792 2°51.736 9.4 30 5.2 100310 39
2010-11-25 09:52 51°27.681 2°51.675 10.6 31 5.2 100320 38
2010-11-25 09:53 51°27.569 2°51.612 12.3 32 5.1 100320 36
2010-11-25 09:54 51°27.457 2°51.548 4.2 26 5.1 100320 36
2010-11-25 09:55 51°27.347 2°51.485 7.8 29 5.2 100310 36
2010-11-25 09:56 51°27.234 2°51.422 7.5 33 5.3 100320 37
2010-11-25 09:57 51°27.123 2°51.366 7.1 35 5.3 100320 36
2010-11-25 09:58 51°27.016 2°51.309 7.8 37 5.2 100320 36
2010-11-25 09:59 51°26.908 2°51.285 7 43 5.2 100320 35
2010-11-25 10:00 51°26.797 2°51.276 6.7 45 5.3 100330 37
2010-11-25 10:01 51°26.684 2°51.264 7.7 43 5.3 100330 35
2010-11-25 10:02 51°26.571 2°51.251 4.6 44 5.4 100330 38
2010-11-25 10:03 51°26.46 2°51.237 6.6 20 5.4 100330 34
2010-11-25 10:04 51°26.351 2°51.223 5.6 21 5.3 100340 37
2010-11-25 10:05 51°26.237 2°51.208 5.2 22 5.2 100330 36
2010-11-25 10:06 51°26.124 2°51.19 6.7 19 5.3 100340 35
2010-11-25 10:07 51°26.012 2°51.172 6.4 41 5.3 100330 36
2010-11-25 10:08 51°25.898 2°51.15 5.9 23 5.3 100330 37
2010-11-25 10:09 51°25.786 2°51.126 5.4 22 5.3 100330 35
2010-11-25 10:10 51°25.672 2°51.104 5.9 40 5.5 100320 35
2010-11-25 10:11 51°25.558 2°51.08 4.5 34 5.4 100330 38
2010-11-25 10:12 51°25.441 2°51.048 6.4 43 5.4 100330 39
2010-11-25 10:13 51°25.329 2°51.02 4.6 43 5.3 100330 33
2010-11-25 10:14 51°25.214 2°50.997 7.4 40 5.3 100330 33
2010-11-25 10:15 51°25.102 2°50.971 5.2 34 5.3 100340 35
2010-11-25 10:16 51°24.987 2°50.943 6.1 39 5.4 100330 37
2010-11-25 10:17 51°24.873 2°50.914 5.1 37 5.3 100330 36
2010-11-25 10:18 51°24.758 2°50.885 6.7 41 5.4 100330 38
2010-11-25 10:19 51°24.645 2°50.858 5.5 43 5.4 100330 37
2010-11-25 10:20 51°24.531 2°50.831 5.7 37 5.5 100330 37
2010-11-25 10:21 51°24.415 2°50.805 6.2 39 5.5 100320 35
2010-11-25 10:22 51°24.3 2°50.777 6.1 34 5.4 100330 36
2010-11-25 10:23 51°24.188 2°50.751 5.9 43 5.4 100330 36
2010-11-25 10:24 51°24.072 2°50.727 7.8 39 5.5 100330 36
2010-11-25 10:25 51°23.958 2°50.702 6.3 43 5.5 100320 36
2010-11-25 10:26 51°23.845 2°50.687 9.1 38 5.5 100320 38
2010-11-25 10:27 51°23.73 2°50.694 6.8 23 5.4 100320 34
2010-11-25 10:28 51°23.617 2°50.705 6.1 27 5.4 100330 35
2010-11-25 10:29 51°23.51 2°50.72 6.7 44 5.7 100320 37
2010-11-25 10:30 51°23.399 2°50.733 5.3 37 5.7 100320 36
2010-11-25 10:31 51°23.289 2°50.739 9.2 43 5.6 100330 36
2010-11-25 10:32 51°23.185 2°50.753 7.7 37 5.6 100320 37
2010-11-25 10:33 51°23.077 2°50.764 6.5 26 5.6 100320 40
2010-11-25 10:34 51°22.968 2°50.779 8.4 22 5.3 100320 37
2010-11-25 10:35 51°22.855 2°50.794 6.4 20 5.3 100340 39
2010-11-25 10:36 51°22.752 2°50.826 10.3 19 5.1 100340 38
2010-11-25 10:37 51°22.68 2°50.922 5.9 264 5 100320 38
2010-11-25 10:38 51°22.662 2°51.054 14.5 246 5 100300 38
2010-11-25 10:39 51°22.704 2°51.155 12.6 24 4.9 100290 38
2010-11-25 10:40 51°22.763 2°51.257 11.8 20 4.7 100310 38
2010-11-25 10:41 51°22.831 2°51.362 14.7 22 4.7 100310 38
2010-11-25 10:42 51°22.908 2°51.455 11.8 319 4.7 100320 39
2010-11-25 10:43 51°22.988 2°51.552 11.3 22 4.8 100300 43
2010-11-25 10:44 51°23.065 2°51.647 11.6 23 4.8 100290 38
2010-11-25 10:45 51°23.139 2°51.745 12.9 21 4.8 100300 37
2010-11-25 10:46 51°23.212 2°51.841 10.6 25 5 100300 37
2010-11-25 10:47 51°23.288 2°51.946 12.5 22 5 100290 38
2010-11-25 10:48 51°23.363 2°52.047 13.3 26 5.1 100300 38
2010-11-25 10:49 51°23.444 2°52.158 12.2 19 5 100280 37
2010-11-25 10:50 51°23.531 2°52.24 11.6 24 5.1 100290 38
2010-11-25 10:51 51°23.616 2°52.229 13 322 5.1 100290 37
2010-11-25 10:52 51°23.66 2°52.099 14 348 5 100290 38
2010-11-25 10:53 51°23.606 2°51.928 12.7 4 4.9 100260 40
2010-11-25 10:54 51°23.546 2°51.775 9.1 359 4.8 100290 40
2010-11-25 10:55 51°23.484 2°51.628 9.7 1 4.8 100280 40
2010-11-25 10:56 51°23.414 2°51.495 14.8 10 4.8 100290 41
2010-11-25 10:57 51°23.337 2°51.376 10.3 11 4.7 100290 41
2010-11-25 10:58 51°23.263 2°51.26 11.7 10 4.5 100290 40
2010-11-25 10:59 51°23.176 2°51.165 10.6 18 4.5 100310 43
2010-11-25 11:00 51°23.081 2°51.078 9.3 15 4.4 100320 43
2010-11-25 11:01 51°22.983 2°50.994 11.8 21 4.5 100330 42
2010-11-25 11:02 51°22.883 2°50.939 11.1 30 4.2 100320 41
2010-11-25 11:03 51°22.783 2°50.898 10.3 25 4 100340 43
2010-11-25 11:04 51°22.68 2°50.859 10.4 31 4 100330 41
2010-11-25 11:05 51°22.575 2°50.814 11.5 34 4 100330 44
2010-11-25 11:06 51°22.47 2°50.765 12.2 28 4 100320 42
2010-11-25 11:07 51°22.37 2°50.719 11.1 30 3.9 100340 42
2010-11-25 11:08 51°22.271 2°50.671 11.7 32 3.7 100340 42
2010-11-25 11:09 51°22.182 2°50.625 11.1 27 3.8 100340 43
2010-11-25 11:10 51°22.09 2°50.556 13 24 3.6 100340 42
2010-11-25 11:11 51°21.999 2°50.484 9.6 21 3.4 100320 42
2010-11-25 11:12 51°21.901 2°50.429 9 29 3.3 100330 41
2010-11-25 11:13 51°21.796 2°50.407 9.5 33 3.2 100350 42
2010-11-25 11:14 51°21.693 2°50.394 9 36 3 100360 43
2010-11-25 11:15 51°21.583 2°50.375 6.3 30 3 100360 40
2010-11-25 11:16 51°21.478 2°50.364 7.4 25 3.2 100360 41
2010-11-25 11:17 51°21.371 2°50.343 10.5 33 3.3 100360 44
2010-11-25 11:18 51°21.267 2°50.313 7.8 35 3.1 100350 42
2010-11-25 11:19 51°21.16 2°50.282 7.5 38 3.1 100360 42
2010-11-25 11:20 51°21.057 2°50.282 6.6 25 2.9 100370 42
2010-11-25 11:21 51°20.957 2°50.307 5.1 44 2.8 100360 42
2010-11-25 11:22 51°20.856 2°50.331 5.5 44 2.8 100370 46
2010-11-25 11:23 51°20.753 2°50.352 7.9 30 2.8 100360 45
2010-11-25 11:24 51°20.648 2°50.374 8.7 33 2.9 100360 42
2010-11-25 11:25 51°20.543 2°50.39 9.1 34 2.9 100340 45
2010-11-25 11:26 51°20.439 2°50.427 5.2 42 3 100350 43
2010-11-25 11:27 51°20.342 2°50.477 6.2 37 3.1 100350 44
2010-11-25 11:28 51°20.244 2°50.524 4.2 36 3.1 100350 45
2010-11-25 11:29 51°20.147 2°50.573 2.4 33 3 100360 43
2010-11-25 11:30 51°20.051 2°50.625 4.8 37 3 100350 44
2010-11-25 11:31 51°19.958 2°50.678 3.9 40 2.9 100360 44
2010-11-25 11:32 51°19.864 2°50.733 4.3 37 3.1 100350 42
2010-11-25 11:33 51°19.771 2°50.786 6.8 34 3.1 100350 43
2010-11-25 11:34 51°19.678 2°50.84 7.3 35 2.9 100350 40
2010-11-25 11:35 51°19.583 2°50.897 3 33 3 100340 42
2010-11-25 11:36 51°19.488 2°50.946 5.3 35 3 100340 44
2010-11-25 11:37 51°19.389 2°50.993 5.2 33 3.1 100330 41
2010-11-25 11:38 51°19.291 2°51.042 5.5 34 3 100320 40
2010-11-25 11:39 51°19.192 2°51.092 6.8 34 3.1 100330 40
2010-11-25 11:40 51°19.093 2°51.145 8.2 33 3.1 100330 41
2010-11-25 11:41 51°18.993 2°51.194 7.4 38 3 100330 43
2010-11-25 11:42 51°18.893 2°51.244 6.8 33 3 100330 42
2010-11-25 11:43 51°18.793 2°51.29 5.1 35 3 100320 43
2010-11-25 11:44 51°18.695 2°51.337 5.3 37 3 100330 40
2010-11-25 11:45 51°18.596 2°51.385 6 37 3 100340 43
2010-11-25 11:46 51°18.496 2°51.431 5.7 38 3 100330 41
2010-11-25 11:47 51°18.396 2°51.477 1.4 39 3.1 100340 44
2010-11-25 11:48 51°18.298 2°51.527 3.6 34 3.1 100330 42
2010-11-25 11:49 51°18.202 2°51.579 4.3 31 3 100330 43
2010-11-25 11:50 51°18.108 2°51.635 4.3 30 3 100320 41
2010-11-25 11:51 51°18.014 2°51.691 2.6 32 2.9 100320 41
2010-11-25 11:52 51°17.921 2°51.75 2.4 31 2.9 100330 43
2010-11-25 11:53 51°17.828 2°51.808 -999 32 2.8 100330 39
2010-11-25 11:54 51°17.735 2°51.871 0.2 27 2.7 100320 40
2010-11-25 11:55 51°17.649 2°51.95 0.1 31 2.7 100320 40
2010-11-25 11:56 51°17.566 2°52.039 -999 30 2.6 100320 39
2010-11-25 11:57 51°17.484 2°52.131 0.2 30 2.6 100330 39
2010-11-25 11:58 51°17.4 2°52.216 3.6 29 2.7 100310 39
2010-11-25 11:59 51°17.315 2°52.305 2.3 29 2.6 100310 40
2010-11-25 12:00 51°17.232 2°52.395 2.4 28 2.7 100310 42
2010-11-25 12:01 51°17.151 2°52.485 3.1 28 2.7 100300 38
2010-11-25 12:02 51°17.072 2°52.578 1.9 28 2.7 100300 39
2010-11-25 12:03 51°16.997 2°52.673 2.4 31 2.7 100310 43
2010-11-25 12:04 51°16.921 2°52.778 0.7 37 2.7 100300 41
2010-11-25 12:05 51°16.848 2°52.899 0.2 44 2.7 100310 40
2010-11-25 12:06 51°16.781 2°53.027 -999 22 2.8 100310 41
2010-11-25 12:07 51°16.734 2°53.169 -999 22 2.8 100310 41
2010-11-25 12:08 51°16.69 2°53.323 0.1 22 2.8 100300 40
2010-11-25 12:09 51°16.662 2°53.48 -999 22 2.8 100300 40
2010-11-25 12:10 51°16.639 2°53.64 -999 43 3.1 100300 41
2010-11-25 12:11 51°16.614 2°53.799 0.1 23 3.4 100300 41
2010-11-25 12:12 51°16.587 2°53.955 0.1 18 3.6 100290 41
2010-11-25 12:13 51°16.559 2°54.115 0.1 22 3.8 100300 41
2010-11-25 12:14 51°16.53 2°54.275 0.2 21 3.8 100300 40
2010-11-25 12:15 51°16.515 2°54.437 -999 25 3.7 100300 40
2010-11-25 12:16 51°16.515 2°54.594 -999 22 3.6 100290 40
2010-11-25 12:17 51°16.518 2°54.756 1.3 22 3.6 100290 40
2010-11-25 12:18 51°16.504 2°54.918 -999 23 3.5 100280 40
2010-11-25 12:19 51°16.48 2°55.08 0.1 22 3.6 100290 41
2010-11-25 12:20 51°16.455 2°55.239 -999 22 3.9 100290 41
2010-11-25 12:21 51°16.431 2°55.402 -999 23 3.8 100290 40
2010-11-25 12:22 51°16.407 2°55.566 0.2 22 4 100290 40
2010-11-25 12:23 51°16.384 2°55.731 -999 23 4 100290 40
2010-11-25 12:24 51°16.364 2°55.894 -999 22 4.2 100280 40
2010-11-25 12:25 51°16.344 2°56.063 -999 22 4.2 100270 40
2010-11-25 12:26 51°16.347 2°56.226 -999 261 4.1 100280 39
2010-11-25 12:27 51°16.414 2°56.326 -999 22 4 100270 40
2010-11-25 12:28 51°16.485 2°56.328 8.6 25 4 100260 41
2010-11-25 12:29 51°16.54 2°56.221 7.5 331 3.9 100260 41
2010-11-25 12:30 51°16.516 2°56.052 8.3 339 3.8 100260 40
2010-11-25 12:31 51°16.452 2°55.909 7.9 345 3.8 100260 39
2010-11-25 12:32 51°16.369 2°55.787 6.7 350 3.9 100260 39
2010-11-25 12:33 51°16.287 2°55.665 7.2 352 4 100250 42
2010-11-25 12:34 51°16.208 2°55.543 6.2 349 4.1 100260 40
2010-11-25 12:35 51°16.116 2°55.432 5 350 4.1 100260 39
2010-11-25 12:36 51°16.016 2°55.343 5.8 356 4.1 100260 41
2010-11-25 12:37 51°15.917 2°55.26 5.2 2 4.2 100260 39
2010-11-25 12:38 51°15.818 2°55.171 5.3 1 4.3 100260 42
2010-11-25 12:39 51°15.719 2°55.077 5.3 354 4.4 100250 38
2010-11-25 12:40 51°15.624 2°54.987 5.6 358 4.5 100260 41
2010-11-25 12:41 51°15.523 2°54.897 5.3 2 4.5 100260 41
2010-11-25 12:42 51°15.428 2°54.809 4.3 5 4.5 100260 40
2010-11-25 12:43 51°15.332 2°54.722 7.2 1 4.5 100260 39
2010-11-25 12:44 51°15.244 2°54.637 6 360 4.4 100250 38
2010-11-25 12:45 51°15.152 2°54.554 3.8 358 4.4 100240 41
2010-11-25 12:46 51°15.049 2°54.511 3.5 8 4.4 100250 39
2010-11-25 12:47 51°14.944 2°54.479 5.7 10 4.4 100260 39
2010-11-25 12:48 51°14.844 2°54.431 5.3 357 4.4 100260 40
2010-11-25 12:49 51°14.76 2°54.343 7 358 4.4 100250 39
2010-11-25 12:50 51°14.677 2°54.249 4.7 355 4.3 100250 40
2010-11-25 12:51 51°14.588 2°54.169 6.6 358 4.4 100260 38
2010-11-25 12:52 51°14.501 2°54.089 5 355 4.4 100250 39
2010-11-25 12:53 51°14.414 2°54.006 5.7 354 4.3 100260 38
2010-11-25 12:54 51°14.345 2°53.901 7.4 358 4.3 100250 41
2010-11-25 12:55 51°14.282 2°53.787 7.5 357 4.3 100250 37
2010-11-25 12:56 51°14.217 2°53.676 6.5 354 4.4 100250 38
2010-11-25 12:57 51°14.149 2°53.562 7.2 358 4.4 100250 40
2010-11-25 12:58 51°14.084 2°53.451 7.9 355 4.4 100250 39
2010-11-25 12:59 51°14.018 2°53.343 7.8 351 4.5 100250 40
2010-11-25 13:00 51°13.962 2°53.225 8.2 353 4.4 100240 38
2010-11-25 13:01 51°13.924 2°53.095 8.3 346 4.4 100240 40
2010-11-25 13:02 51°13.883 2°52.957 8.9 350 4.4 100240 39
2010-11-25 13:03 51°13.833 2°52.812 8.5 348 4.4 100250 38
2010-11-25 13:04 51°13.784 2°52.665 8.3 345 4.4 100240 41
2010-11-25 13:05 51°13.736 2°52.519 7.3 348 4.3 100240 41
2010-11-25 13:06 51°13.687 2°52.37 8.7 344 4.4 100240 40
2010-11-25 13:07 51°13.64 2°52.225 7.3 342 4.4 100250 39
2010-11-25 13:08 51°13.591 2°52.078 8.2 344 4.4 100240 40
2010-11-25 13:09 51°13.542 2°51.927 6.1 346 4.4 100230 39
2010-11-25 13:10 51°13.495 2°51.78 5.9 343 4.5 100240 42
2010-11-25 13:11 51°13.447 2°51.632 11.5 359 4.7 100210 41
2010-11-25 13:12 51°13.4 2°51.489 11.3 358 4.6 100210 41
2010-11-25 13:13 51°13.352 2°51.346 12.1 352 4.5 100220 41
2010-11-25 13:14 51°13.306 2°51.201 13.2 356 4.5 100210 40
2010-11-25 13:15 51°13.259 2°51.057 12.1 354 4.6 100220 40
2010-11-25 13:16 51°13.208 2°50.918 10.3 358 4.4 100200 39
2010-11-25 13:17 51°13.159 2°50.779 6.2 357 4.3 100180 42
2010-11-25 13:18 51°13.108 2°50.644 6.5 358 4.3 100180 45
2010-11-25 13:19 51°13.062 2°50.505 14.4 357 4.1 100200 46
2010-11-25 13:20 51°13.007 2°50.375 12.4 357 3.7 100210 47
2010-11-25 13:21 51°12.952 2°50.243 6.3 354 3.5 100220 46
2010-11-25 13:22 51°12.898 2°50.112 16 355 3.2 100210 46
2010-11-25 13:23 51°12.845 2°49.978 13.4 352 3 100230 47
2010-11-25 13:24 51°12.792 2°49.846 15.7 350 2.9 100230 46
2010-11-25 13:25 51°12.738 2°49.714 13.2 353 2.9 100230 46
2010-11-25 13:26 51°12.685 2°49.585 11.9 358 3 100210 46
2010-11-25 13:27 51°12.632 2°49.462 12.4 356 3 100200 45
2010-11-25 13:28 51°12.58 2°49.334 14.7 1 2.9 100190 44
2010-11-25 13:29 51°12.526 2°49.205 13.4 1 2.9 100190 46
2010-11-25 13:30 51°12.473 2°49.074 14.8 357 2.9 100210 45
2010-11-25 13:31 51°12.42 2°48.946 7.7 359 2.8 100210 46
2010-11-25 13:32 51°12.364 2°48.822 12.4 1 2.8 100210 44
2010-11-25 13:33 51°12.312 2°48.7 6.7 356 2.8 100210 43
2010-11-25 13:34 51°12.256 2°48.576 7.3 356 2.8 100220 46
2010-11-25 13:35 51°12.205 2°48.457 13.3 358 2.6 100210 44
2010-11-25 13:36 51°12.151 2°48.333 14.2 358 2.7 100230 45
2010-11-25 13:37 51°12.098 2°48.213 5.6 1 2.7 100220 44
2010-11-25 13:38 51°12.056 2°48.082 14.7 356 2.6 100220 45
2010-11-25 13:39 51°12.026 2°47.95 13 357 2.7 100220 45
2010-11-25 13:40 51°11.996 2°47.808 6.8 355 2.8 100220 48
2010-11-25 13:41 51°11.964 2°47.666 6.3 352 2.7 100200 46
2010-11-25 13:42 51°11.931 2°47.523 6.2 353 2.8 100210 46
2010-11-25 13:43 51°11.897 2°47.375 6.7 355 2.8 100220 45
2010-11-25 13:44 51°11.861 2°47.238 12.1 354 2.7 100210 44
2010-11-25 13:45 51°11.827 2°47.098 5.9 353 2.7 100200 47
2010-11-25 13:46 51°11.793 2°46.952 7.3 354 2.8 100210 45
2010-11-25 13:47 51°11.759 2°46.808 15.1 352 2.8 100210 42
2010-11-25 13:48 51°11.726 2°46.662 15.3 356 2.7 100220 44
2010-11-25 13:49 51°11.689 2°46.518 14.7 354 2.7 100220 44
2010-11-25 13:50 51°11.656 2°46.372 13.6 355 2.7 100240 44
2010-11-25 13:51 51°11.622 2°46.222 5.6 1 2.9 100240 42
2010-11-25 13:52 51°11.585 2°46.069 14.6 360 2.8 100230 43
2010-11-25 13:53 51°11.55 2°45.917 5.3 1 2.9 100240 42
2010-11-25 13:54 51°11.514 2°45.765 10.6 360 3 100230 43
2010-11-25 13:55 51°11.477 2°45.61 4.6 4 3 100240 43
2010-11-25 13:56 51°11.438 2°45.456 7.6 2 2.9 100240 40
2010-11-25 13:57 51°11.401 2°45.302 5.1 2 3 100230 43
2010-11-25 13:58 51°11.362 2°45.144 10.5 3 2.9 100230 42
2010-11-25 13:59 51°11.324 2°44.984 6.6 360 2.9 100230 42
2010-11-25 14:00 51°11.285 2°44.821 4.3 360 3 100250 39
2010-11-25 14:01 51°11.246 2°44.657 7.9 4 3.1 100260 40
2010-11-25 14:02 51°11.208 2°44.494 11 359 3.1 100250 42
2010-11-25 14:03 51°11.17 2°44.334 8.8 2 3 100250 40
2010-11-25 14:04 51°11.133 2°44.173 8.9 1 3 100260 42
2010-11-25 14:05 51°11.096 2°44.012 7.8 3 3.1 100250 40
2010-11-25 14:06 51°11.034 2°43.879 5.9 26 3.1 100260 42
2010-11-25 14:07 51°10.917 2°43.89 0.1 24 3 100280 39
2010-11-25 14:08 51°10.826 2°44.057 0.2 264 3 100270 41
2010-11-25 14:09 51°10.803 2°44.29 7.9 18 3.1 100270 40
2010-11-25 14:10 51°10.848 2°44.522 7.5 25 3.1 100250 43
2010-11-25 14:11 51°10.899 2°44.738 6.8 20 3.1 100250 39
2010-11-25 14:12 51°10.95 2°44.952 6.3 26 3.2 100250 43
2010-11-25 14:13 51°11.007 2°45.132 6.1 28 3.2 100250 42
2010-11-25 14:14 51°11.064 2°45.298 11.9 19 3.2 100270 40
2010-11-25 14:15 51°11.119 2°45.461 8.5 23 3.3 100250 41
2010-11-25 14:16 51°11.174 2°45.627 7.1 23 3.4 100250 42
2010-11-25 14:17 51°11.235 2°45.791 9.6 24 3.3 100250 42
2010-11-25 14:18 51°11.299 2°45.958 7.1 26 3.3 100250 40
2010-11-25 14:19 51°11.362 2°46.127 8.7 19 3.2 100250 39
2010-11-25 14:20 51°11.426 2°46.299 7.7 20 3.2 100240 41
2010-11-25 14:21 51°11.492 2°46.472 7.9 20 3.3 100240 41
2010-11-25 14:22 51°11.559 2°46.646 6.3 20 3.3 100250 39
2010-11-25 14:23 51°11.622 2°46.817 6.5 20 3.3 100250 41
2010-11-25 14:24 51°11.687 2°46.993 7.8 23 3.3 100250 42
2010-11-25 14:25 51°11.75 2°47.163 5.5 24 3.4 100250 42
2010-11-25 14:26 51°11.809 2°47.32 5.7 23 3.5 100250 42
2010-11-25 14:27 51°11.866 2°47.468 5.3 21 3.4 100250 39
2010-11-25 14:28 51°11.924 2°47.614 6.2 26 3.5 100260 42
2010-11-25 14:29 51°11.977 2°47.758 6.1 247 3.5 100260 41
2010-11-25 14:30 51°12.028 2°47.894 4.7 250 3.5 100260 41
2010-11-25 14:31 51°12.081 2°48.027 5.8 255 3.5 100260 39
2010-11-25 14:32 51°12.133 2°48.163 6.3 253 3.5 100250 39
2010-11-25 14:33 51°12.184 2°48.299 5.9 257 3.5 100250 38
2010-11-25 14:34 51°12.234 2°48.432 5 247 3.6 100260 39
2010-11-25 14:35 51°12.286 2°48.568 7.5 255 3.6 100250 39
2010-11-25 14:36 51°12.339 2°48.706 7.6 256 3.6 100250 41
2010-11-25 14:37 51°12.393 2°48.847 7.4 257 3.7 100250 39
2010-11-25 14:38 51°12.447 2°48.986 5.4 253 3.7 100240 39
2010-11-25 14:39 51°12.501 2°49.127 7 255 3.8 100240 41
2010-11-25 14:40 51°12.553 2°49.268 6.1 259 3.8 100240 42
2010-11-25 14:41 51°12.608 2°49.408 7.4 255 3.8 100240 40
2010-11-25 14:42 51°12.659 2°49.543 6.6 260 3.8 100240 39
2010-11-25 14:43 51°12.712 2°49.679 5.7 261 3.8 100240 41
2010-11-25 14:44 51°12.762 2°49.813 8.3 260 3.8 100230 40
2010-11-25 14:45 51°12.815 2°49.95 9 261 3.8 100230 39
2010-11-25 14:46 51°12.867 2°50.085 5.4 261 3.8 100230 39
2010-11-25 14:47 51°12.918 2°50.217 9 255 3.9 100220 40
2010-11-25 14:48 51°12.97 2°50.35 7.8 258 4 100230 40
2010-11-25 14:49 51°13.021 2°50.485 6.4 260 4 100240 39
2010-11-25 14:50 51°13.071 2°50.62 8.8 256 4.1 100230 42
2010-11-25 14:51 51°13.121 2°50.751 9.2 252 4 100230 40
2010-11-25 14:52 51°13.171 2°50.886 8.2 254 4.1 100230 42
2010-11-25 14:53 51°13.224 2°51.02 8.7 260 4.1 100240 41
2010-11-25 14:54 51°13.274 2°51.155 8.4 254 4.1 100230 41
2010-11-25 14:55 51°13.323 2°51.288 9.2 256 4.2 100230 40
2010-11-25 14:56 51°13.371 2°51.422 10.5 259 4.2 100230 40
2010-11-25 14:57 51°13.421 2°51.554 11.9 257 4.3 100230 40
2010-11-25 14:58 51°13.47 2°51.684 9.3 19 4.3 100230 41
2010-11-25 14:59 51°13.517 2°51.817 12.4 252 4.4 100230 41
2010-11-25 15:00 51°13.563 2°51.948 11.8 253 4.3 100220 39
2010-11-25 15:01 51°13.607 2°52.075 13.5 20 4.3 100220 39
2010-11-25 15:02 51°13.654 2°52.205 12 253 4.3 100230 41
2010-11-25 15:03 51°13.703 2°52.337 12.7 254 4.2 100240 41
2010-11-25 15:04 51°13.753 2°52.477 14.2 256 4.3 100250 41
2010-11-25 15:05 51°13.803 2°52.614 10.7 252 4.3 100210 41
2010-11-25 15:06 51°13.851 2°52.752 11.9 22 4.3 100230 41
2010-11-25 15:07 51°13.898 2°52.892 12.7 249 4.3 100230 41
2010-11-25 15:08 51°13.946 2°53.031 13.9 254 4.4 100220 41
2010-11-25 15:09 51°13.995 2°53.167 12.4 22 4.4 100230 41
2010-11-25 15:10 51°14.043 2°53.306 15.3 20 4.4 100220 40
2010-11-25 15:11 51°14.086 2°53.444 15.2 20 4.1 100220 40
2010-11-25 15:12 51°14.129 2°53.575 17.9 21 4.1 100220 40
2010-11-25 15:13 51°14.171 2°53.703 17 247 3.9 100220 42
2010-11-25 15:14 51°14.204 2°53.811 15.1 22 3.8 100220 41
2010-11-25 15:15 51°14.223 2°53.889 11.9 249 3.6 100250 41
2010-11-25 15:16 51°14.238 2°53.958 14.9 23 3.6 100220 41
2010-11-25 15:17 51°14.275 2°54.027 14.2 25 3.4 100230 41
2010-11-25 15:18 51°14.316 2°54.073 14.1 323 3.4 100260 42
2010-11-25 15:19 51°14.411 2°54.095 15.3 329 3.2 100260 41
2010-11-25 15:20 51°14.561 2°54.101 13.6 326 3.1 100240 41
2010-11-25 15:21 51°14.645 2°54.132 14.7 321 3.2 100260 42
2010-11-25 15:22 51°14.694 2°54.172 11.1 321 3.2 100250 42
2010-11-25 15:23 51°14.718 2°54.215 12.4 24 3 100260 42
2010-11-25 15:24 51°14.743 2°54.268 12.8 316 3 100250 45
2010-11-25 15:25 51°14.789 2°54.297 10.5 335 3 100260 46
2010-11-25 15:26 51°14.823 2°54.29 8 347 2.9 100260 44
2010-11-25 15:27 51°14.839 2°54.278 9.9 350 3 100260 44
2010-11-25 15:28 51°14.858 2°54.26 12.2 349 3 100240 43
2010-11-25 15:29 51°14.869 2°54.226 17.3 12 3 100250 43
2010-11-25 15:30 51°14.827 2°54.21 10.7 23 3 100280 43
2010-11-25 15:31 51°14.786 2°54.329 10.6 269 2.8 100290 41
2010-11-25 15:32 51°14.732 2°54.574 5.6 266 2.8 100300 43
2010-11-25 15:33 51°14.626 2°54.861 4.3 269 2.9 100300 40
2010-11-25 15:34 51°14.467 2°55.089 0.1 20 3 100310 41
2010-11-25 15:35 51°14.301 2°55.256 0.2 19 3.1 100310 42
2010-11-25 15:36 51°14.174 2°55.37 -999 22 3.7 100320 43
2010-11-25 15:37 51°14.059 2°55.453 5 20 3.5 100310 41
2010-11-25 15:38 51°13.942 2°55.54 3.6 19 3.4 100310 44
2010-11-25 15:39 51°13.83 2°55.623 3.5 24 3.5 100310 41
2010-11-25 15:40 51°13.758 2°55.72 7.8 23 3.3 100310 43
2010-11-25 15:41 51°13.706 2°55.821 4 270 3.3 100320 39
2010-11-25 15:42 51°13.673 2°55.911 4.2 330 3.1 100320 43
2010-11-25 15:43 51°13.662 2°55.959 10.8 24 2.9 100320 40
2010-11-25 15:44 51°13.661 2°55.962 8.9 17 2.8 100340 46
2010-11-25 15:45 51°13.662 2°55.963 7.3 21 2.7 100340 45
2010-11-25 15:46 51°13.661 2°55.964 8.9 19 2.7 100320 43
2010-11-25 15:47 51°13.661 2°55.962 7.2 22 2.6 100320 41